Wetterdaten: aktuell Montag, 13.08.2018 21:00
Datum Zeit Temp. A. Feuchte A. Luftdruck Regen Wind Richtung Richtung Sonnenschein ET UV Solar Taupunkt Windchill Windben
13.08.2018 21:00 22,4 C 62 % 1007,9 hPa 0,0 l/m 0,0 km/h (0 Bft) W-SW 250 5 min 0,051 mm 0,0 UV-I 0 W/m 14,8 C 22,4 C 0,0 km/h (0 Bft)
13.08.2018 20:00 23,1 C 61 % 1007,9 hPa 0,0 l/m 1,0 km/h (0 Bft) S 169 0 min 0,051 mm 0,0 UV-I 28 W/m 15,2 C 23,1 C 6,4 km/h (2 Bft)
13.08.2018 19:00 23,0 C 61 % 1007,3 hPa 0,0 l/m 1,0 km/h (0 Bft) N 351 0 min 0,102 mm 0,0 UV-I 65 W/m 15,1 C 23,0 C 6,4 km/h (2 Bft)
13.08.2018 18:00 23,2 C 60 % 1007,5 hPa 0,0 l/m 3,1 km/h (1 Bft) S 169 0 min 0,076 mm 0,0 UV-I 60 W/m 15,0 C 23,2 C 9,7 km/h (2 Bft)
13.08.2018 17:00 22,6 C 65 % 1007,9 hPa 0,0 l/m 4,0 km/h (1 Bft) W-SW 240 0 min 0,178 mm 0,6 UV-I 93 W/m 15,7 C 22,6 C 9,7 km/h (2 Bft)
13.08.2018 16:00 24,9 C 51 % 1008,2 hPa 0,0 l/m 4,1 km/h (1 Bft) N-NW 335 5 min 0,457 mm 0,0 UV-I 44 W/m 14,1 C 24,9 C 11,3 km/h (2 Bft)
13.08.2018 15:00 28,2 C 39 % 1007,8 hPa 0,0 l/m 7,0 km/h (2 Bft) N-NW 329 50 min 0,432 mm 2,1 UV-I 295 W/m 12,9 C 28,1 C 17,7 km/h (3 Bft)
13.08.2018 14:00 28,2 C 33 % 1007,2 hPa 0,0 l/m 4,5 km/h (1 Bft) N-NW 330 35 min 0,457 mm 4,8 UV-I 501 W/m 10,4 C 28,2 C 14,5 km/h (3 Bft)
13.08.2018 13:00 31,4 C 28 % 1006,9 hPa 0,0 l/m 2,7 km/h (1 Bft) W 265 35 min 0,482 mm 4,2 UV-I 874 W/m 10,7 C 31,4 C 8,0 km/h (2 Bft)
13.08.2018 12:00 30,3 C 28 % 1007,2 hPa 0,0 l/m 1,3 km/h (1 Bft) W 269 60 min 0,356 mm 4,7 UV-I 714 W/m 9,7 C 30,3 C 8,0 km/h (2 Bft)
13.08.2018 11:00 29,4 C 31 % 1007,6 hPa 0,0 l/m 1,1 km/h (1 Bft) W-SW 255 50 min 0,152 mm 3,8 UV-I 645 W/m 10,5 C 29,4 C 8,0 km/h (2 Bft)
13.08.2018 10:00 26,0 C 37 % 1008,0 hPa 0,0 l/m 0,5 km/h (0 Bft) S-SO 157 15 min 0,051 mm 2,2 UV-I 380 W/m 10,2 C 26,0 C 3,2 km/h (1 Bft)
13.08.2018 09:00 20,9 C 52 % 1008,4 hPa 0,0 l/m 0,1 km/h (0 Bft) SW 220 0 min 0,026 mm 1,1 UV-I 56 W/m 10,7 C 20,9 C 1,6 km/h (1 Bft)
13.08.2018 08:00 15,9 C 66 % 1008,9 hPa 0,0 l/m 0,0 km/h (0 Bft) SW 221 5 min 0,002 mm 0,0 UV-I 53 W/m 9,6 C 15,9 C 1,6 km/h (1 Bft)
13.08.2018 07:00 12,3 C 80 % 1008,9 hPa 0,0 l/m 0,0 km/h (0 Bft) SW 221 0 min 0,002 mm 0,0 UV-I 40 W/m 8,9 C 12,3 C 0,0 km/h (0 Bft)
13.08.2018 06:00 11,8 C 77 % 1008,8 hPa 0,0 l/m 0,0 km/h (0 Bft) SW 221 0 min 0,025 mm 0,0 UV-I 5 W/m 7,9 C 11,8 C 0,0 km/h (0 Bft)
13.08.2018 05:00 12,7 C 75 % 1009,1 hPa 0,0 l/m 0,0 km/h (0 Bft) N 0 0 min 0,025 mm 0,0 UV-I 0 W/m 8,4 C 12,7 C 0,0 km/h (0 Bft)
13.08.2018 04:00 14,3 C 65 % 1009,5 hPa 0,0 l/m 0,0 km/h (0 Bft) N 0 0 min 0,025 mm 0,0 UV-I 0 W/m 7,8 C 14,3 C 0,0 km/h (0 Bft)
13.08.2018 03:00 14,3 C 66 % 1009,9 hPa 0,0 l/m 0,0 km/h (0 Bft) N 0 0 min 0,025 mm 0,0 UV-I 0 W/m 8,0 C 14,3 C 0,0 km/h (0 Bft)
13.08.2018 02:00 14,0 C 72 % 1010,3 hPa 0,0 l/m 0,0 km/h (0 Bft) N 0 0 min 0,025 mm 0,0 UV-I 0 W/m 9,0 C 14,0 C 0,0 km/h (0 Bft)
13.08.2018 01:00 15,2 C 68 % 1010,6 hPa 0,0 l/m 0,0 km/h (0 Bft) N 0 0 min 0,025 mm 0,0 UV-I 0 W/m 9,3 C 15,2 C 0,0 km/h (0 Bft)
13.08.2018 00:00 16,4 C 64 % 1011,0 hPa 0,0 l/m 0,0 km/h (0 Bft) N 0 0 min 0,025 mm 0,0 UV-I 0 W/m 9,6 C 16,4 C 0,0 km/h (0 Bft)
_ Min-Zeit 06:20 11:50 13:10 - 00:00 - - - - - - 03:35 06:20 00:00
Minimum _ 11,6 C 27 % 1006,8 hPa - 0,0 km/h (0 Bft) - - - - - - 7,6 C 11,6 C 0,0 km/h (0 Bft)
_ Max-Zeit 13:20 06:45 00:00 00:00 15:25 - - 07:40 12:05 12:15 12:55 17:05 13:20 15:15
Maximum _ 32,0 C 81 % 1011,0 hPa 0,0 l/m 8,4 km/h
NW (2 Bft)
- - 5 min 0,482 mm 5,0 UV-I 875 W/m 16,2 C 31,9 C 25,7 km/h
W (4 Bft)
Durchschnitt _ 21,0 C 56 % 1008,5 hPa #0,0 l/m 1,7 km/h (1 Bft) W-SW - #4:20 h #3,023 mm 2,4 UV-I 254 W/m 11,0 C 21,0 C 6,0 km/h (2 Bft)